sensor_id;sensor_type;location;lat;lon;timestamp;P1;durP1;ratioP1;P2;durP2;ratioP2
77168;SDS011;66281;45.114;20.730;2023-03-17T00:08:51;17.45;;;7.53;;
77168;SDS011;66281;45.114;20.730;2023-03-17T00:18:52;14.98;;;8.13;;
77168;SDS011;66281;45.114;20.730;2023-03-17T00:28:53;13.53;;;6.80;;
77168;SDS011;66281;45.114;20.730;2023-03-17T00:38:55;12.93;;;6.87;;
77168;SDS011;66281;45.114;20.730;2023-03-17T00:48:58;15.20;;;7.13;;
77168;SDS011;66281;45.114;20.730;2023-03-17T00:58:58;11.40;;;5.73;;
77168;SDS011;66281;45.114;20.730;2023-03-17T01:08:59;13.20;;;6.43;;
77168;SDS011;66281;45.114;20.730;2023-03-17T01:18:59;11.80;;;6.43;;
77168;SDS011;66281;45.114;20.730;2023-03-17T01:29:00;13.60;;;6.05;;
77168;SDS011;66281;45.114;20.730;2023-03-17T01:39:00;14.50;;;7.07;;
77168;SDS011;66281;45.114;20.730;2023-03-17T01:49:05;12.93;;;5.83;;
77168;SDS011;66281;45.114;20.730;2023-03-17T01:59:10;20.37;;;7.90;;
77168;SDS011;66281;45.114;20.730;2023-03-17T02:09:15;19.20;;;8.50;;
77168;SDS011;66281;45.114;20.730;2023-03-17T02:19:17;15.68;;;6.88;;
77168;SDS011;66281;45.114;20.730;2023-03-17T02:29:18;16.10;;;6.13;;
77168;SDS011;66281;45.114;20.730;2023-03-17T02:39:20;11.83;;;5.30;;
77168;SDS011;66281;45.114;20.730;2023-03-17T02:49:21;8.27;;;4.72;;
77168;SDS011;66281;45.114;20.730;2023-03-17T02:59:22;11.60;;;4.73;;
77168;SDS011;66281;45.114;20.730;2023-03-17T03:09:22;22.73;;;8.52;;
77168;SDS011;66281;45.114;20.730;2023-03-17T03:19:23;24.17;;;9.82;;
77168;SDS011;66281;45.114;20.730;2023-03-17T03:29:23;25.60;;;10.43;;
77168;SDS011;66281;45.114;20.730;2023-03-17T03:39:24;17.67;;;7.93;;
77168;SDS011;66281;45.114;20.730;2023-03-17T03:49:24;14.83;;;6.57;;
77168;SDS011;66281;45.114;20.730;2023-03-17T03:59:25;26.90;;;10.30;;
77168;SDS011;66281;45.114;20.730;2023-03-17T04:09:25;12.23;;;6.25;;
77168;SDS011;66281;45.114;20.730;2023-03-17T04:19:26;31.67;;;14.50;;
77168;SDS011;66281;45.114;20.730;2023-03-17T04:29:26;15.90;;;8.50;;
77168;SDS011;66281;45.114;20.730;2023-03-17T04:39:27;93.90;;;42.83;;
77168;SDS011;66281;45.114;20.730;2023-03-17T04:49:27;82.88;;;32.92;;
77168;SDS011;66281;45.114;20.730;2023-03-17T04:59:28;39.47;;;17.38;;
77168;SDS011;66281;45.114;20.730;2023-03-17T05:09:28;31.37;;;14.13;;
77168;SDS011;66281;45.114;20.730;2023-03-17T05:19:29;28.07;;;12.37;;
77168;SDS011;66281;45.114;20.730;2023-03-17T05:29:29;29.98;;;13.65;;
77168;SDS011;66281;45.114;20.730;2023-03-17T05:39:30;43.10;;;18.65;;
77168;SDS011;66281;45.114;20.730;2023-03-17T05:49:32;32.47;;;13.77;;
77168;SDS011;66281;45.114;20.730;2023-03-17T05:59:32;28.02;;;14.05;;
77168;SDS011;66281;45.114;20.730;2023-03-17T06:09:33;23.53;;;12.30;;
77168;SDS011;66281;45.114;20.730;2023-03-17T06:19:33;40.45;;;18.83;;
77168;SDS011;66281;45.114;20.730;2023-03-17T06:29:34;14.43;;;9.13;;
77168;SDS011;66281;45.114;20.730;2023-03-17T06:39:34;20.35;;;11.57;;
77168;SDS011;66281;45.114;20.730;2023-03-17T06:49:35;13.53;;;9.70;;
77168;SDS011;66281;45.114;20.730;2023-03-17T06:59:36;19.33;;;11.07;;
77168;SDS011;66281;45.114;20.730;2023-03-17T07:09:36;20.45;;;14.38;;
77168;SDS011;66281;45.114;20.730;2023-03-17T07:19:37;14.27;;;9.07;;
77168;SDS011;66281;45.114;20.730;2023-03-17T07:29:37;12.47;;;8.50;;
77168;SDS011;66281;45.114;20.730;2023-03-17T07:39:38;21.40;;;13.48;;
77168;SDS011;66281;45.114;20.730;2023-03-17T07:49:38;15.48;;;10.75;;
77168;SDS011;66281;45.114;20.730;2023-03-17T07:59:39;11.70;;;8.70;;
77168;SDS011;66281;45.114;20.730;2023-03-17T08:09:39;12.77;;;6.90;;
77168;SDS011;66281;45.114;20.730;2023-03-17T08:19:40;13.48;;;7.85;;
77168;SDS011;66281;45.114;20.730;2023-03-17T08:29:40;13.00;;;7.82;;
77168;SDS011;66281;45.114;20.730;2023-03-17T08:39:41;9.60;;;6.23;;
77168;SDS011;66281;45.114;20.730;2023-03-17T08:49:41;13.53;;;7.77;;
77168;SDS011;66281;45.114;20.730;2023-03-17T08:59:42;9.73;;;6.50;;
77168;SDS011;66281;45.114;20.730;2023-03-17T09:09:42;7.20;;;5.25;;
77168;SDS011;66281;45.114;20.730;2023-03-17T09:19:43;40.00;;;20.95;;
77168;SDS011;66281;45.114;20.730;2023-03-17T09:29:43;29.00;;;13.48;;
77168;SDS011;66281;45.114;20.730;2023-03-17T09:39:44;11.55;;;6.97;;
77168;SDS011;66281;45.114;20.730;2023-03-17T09:49:48;11.10;;;5.30;;
77168;SDS011;66281;45.114;20.730;2023-03-17T10:00:11;37.00;;;16.50;;
77168;SDS011;66281;45.114;20.730;2023-03-17T10:10:14;8.27;;;4.37;;
77168;SDS011;66281;45.114;20.730;2023-03-17T10:30:23;11.37;;;5.00;;
77168;SDS011;66281;45.114;20.730;2023-03-17T10:40:25;6.20;;;4.13;;
77168;SDS011;66281;45.114;20.730;2023-03-17T10:50:30;14.03;;;8.70;;
77168;SDS011;66281;45.114;20.730;2023-03-17T11:00:33;9.80;;;4.87;;
77168;SDS011;66281;45.114;20.730;2023-03-17T11:10:35;53.47;;;16.40;;
77168;SDS011;66281;45.114;20.730;2023-03-17T12:01:33;6.10;;;3.27;;
77168;SDS011;66281;45.114;20.730;2023-03-17T12:11:40;8.30;;;4.07;;
77168;SDS011;66281;45.114;20.730;2023-03-17T12:32:02;5.27;;;3.20;;
77168;SDS011;66281;45.114;20.730;2023-03-17T12:42:17;5.32;;;3.35;;
77168;SDS011;66281;45.114;20.730;2023-03-17T12:52:33;3.83;;;2.63;;
77168;SDS011;66281;45.114;20.730;2023-03-17T13:02:39;7.13;;;4.00;;
77168;SDS011;66281;45.114;20.730;2023-03-17T13:53:11;12.10;;;4.80;;
77168;SDS011;66281;45.114;20.730;2023-03-17T14:03:25;5.60;;;2.87;;
77168;SDS011;66281;45.114;20.730;2023-03-17T14:23:59;7.90;;;2.70;;
77168;SDS011;66281;45.114;20.730;2023-03-17T14:34:01;7.00;;;5.43;;
77168;SDS011;66281;45.114;20.730;2023-03-17T14:44:02;9.02;;;4.82;;
77168;SDS011;66281;45.114;20.730;2023-03-17T14:54:24;11.60;;;5.15;;
77168;SDS011;66281;45.114;20.730;2023-03-17T15:04:31;5.80;;;3.03;;
77168;SDS011;66281;45.114;20.730;2023-03-17T15:14:33;5.73;;;2.83;;
77168;SDS011;66281;45.114;20.730;2023-03-17T15:24:39;4.60;;;3.10;;
77168;SDS011;66281;45.114;20.730;2023-03-17T15:34:40;9.87;;;6.27;;
77168;SDS011;66281;45.114;20.730;2023-03-17T15:44:41;40.63;;;17.60;;
77168;SDS011;66281;45.114;20.730;2023-03-17T15:54:41;12.87;;;6.73;;
77168;SDS011;66281;45.114;20.730;2023-03-17T16:04:42;40.37;;;16.93;;
77168;SDS011;66281;45.114;20.730;2023-03-17T16:14:42;26.52;;;11.77;;
77168;SDS011;66281;45.114;20.730;2023-03-17T16:24:43;56.63;;;30.23;;
77168;SDS011;66281;45.114;20.730;2023-03-17T16:34:43;32.20;;;16.80;;
77168;SDS011;66281;45.114;20.730;2023-03-17T16:44:44;38.35;;;18.50;;
77168;SDS011;66281;45.114;20.730;2023-03-17T16:54:44;50.07;;;22.10;;
77168;SDS011;66281;45.114;20.730;2023-03-17T17:04:45;68.23;;;28.00;;
77168;SDS011;66281;45.114;20.730;2023-03-17T17:14:45;151.63;;;53.63;;
77168;SDS011;66281;45.114;20.730;2023-03-17T17:24:46;130.48;;;56.35;;
77168;SDS011;66281;45.114;20.730;2023-03-17T17:34:46;147.50;;;63.00;;
77168;SDS011;66281;45.114;20.730;2023-03-17T17:44:47;153.35;;;67.25;;
77168;SDS011;66281;45.114;20.730;2023-03-17T17:54:47;204.77;;;83.63;;
77168;SDS011;66281;45.114;20.730;2023-03-17T18:04:48;204.03;;;85.53;;
77168;SDS011;66281;45.114;20.730;2023-03-17T18:14:48;208.82;;;88.35;;
77168;SDS011;66281;45.114;20.730;2023-03-17T18:24:49;196.60;;;85.03;;
77168;SDS011;66281;45.114;20.730;2023-03-17T18:34:49;209.95;;;86.05;;
77168;SDS011;66281;45.114;20.730;2023-03-17T18:44:50;227.27;;;91.68;;
77168;SDS011;66281;45.114;20.730;2023-03-17T18:54:50;221.68;;;94.15;;
77168;SDS011;66281;45.114;20.730;2023-03-17T19:04:51;258.63;;;111.50;;
77168;SDS011;66281;45.114;20.730;2023-03-17T19:14:51;280.73;;;120.82;;
77168;SDS011;66281;45.114;20.730;2023-03-17T19:24:52;301.88;;;128.88;;
77168;SDS011;66281;45.114;20.730;2023-03-17T19:34:52;262.75;;;109.50;;
77168;SDS011;66281;45.114;20.730;2023-03-17T19:44:53;279.65;;;113.63;;
77168;SDS011;66281;45.114;20.730;2023-03-17T19:54:53;239.65;;;99.72;;
77168;SDS011;66281;45.114;20.730;2023-03-17T20:04:54;221.32;;;86.43;;
77168;SDS011;66281;45.114;20.730;2023-03-17T20:14:55;223.10;;;90.77;;
77168;SDS011;66281;45.114;20.730;2023-03-17T20:24:56;172.60;;;71.90;;
77168;SDS011;66281;45.114;20.730;2023-03-17T20:34:57;166.30;;;65.35;;
77168;SDS011;66281;45.114;20.730;2023-03-17T20:44:58;147.10;;;55.45;;
77168;SDS011;66281;45.114;20.730;2023-03-17T20:54:58;134.03;;;53.70;;
77168;SDS011;66281;45.114;20.730;2023-03-17T21:04:59;114.25;;;46.28;;
77168;SDS011;66281;45.114;20.730;2023-03-17T21:14:59;116.47;;;47.78;;
77168;SDS011;66281;45.114;20.730;2023-03-17T21:25:00;117.43;;;47.88;;
77168;SDS011;66281;45.114;20.730;2023-03-17T21:35:01;94.03;;;39.20;;
77168;SDS011;66281;45.114;20.730;2023-03-17T21:45:02;75.47;;;32.43;;
77168;SDS011;66281;45.114;20.730;2023-03-17T21:55:03;73.53;;;32.85;;
77168;SDS011;66281;45.114;20.730;2023-03-17T22:05:04;53.50;;;25.77;;
77168;SDS011;66281;45.114;20.730;2023-03-17T22:15:05;63.88;;;27.42;;
77168;SDS011;66281;45.114;20.730;2023-03-17T22:25:07;69.67;;;28.23;;
77168;SDS011;66281;45.114;20.730;2023-03-17T22:35:07;62.93;;;28.17;;
77168;SDS011;66281;45.114;20.730;2023-03-17T22:45:08;79.28;;;32.22;;
77168;SDS011;66281;45.114;20.730;2023-03-17T22:55:09;58.10;;;26.10;;
77168;SDS011;66281;45.114;20.730;2023-03-17T23:05:10;40.00;;;18.80;;
77168;SDS011;66281;45.114;20.730;2023-03-17T23:15:11;34.30;;;19.27;;
77168;SDS011;66281;45.114;20.730;2023-03-17T23:25:12;42.92;;;20.05;;
77168;SDS011;66281;45.114;20.730;2023-03-17T23:35:12;29.47;;;14.60;;
77168;SDS011;66281;45.114;20.730;2023-03-17T23:45:14;19.17;;;9.23;;
77168;SDS011;66281;45.114;20.730;2023-03-17T23:55:15;24.00;;;10.33;;
